Connexion S'enregistrer

Connexion à votre compte

Identifiant
Mot de passe
Maintenir la connexion active sur ce site

Créer un compte

Pour valider ce formulaire, vous devez remplir tous les champs.
Nom
Identifiant
Mot de passe
Répétez le mot de passe
Adresse e-mail
Répétez l'adresse e-mail

Nous contacter

 Téléphone : +33 (0)4 79 54 41 81

Coordonnées détaillées et accès : cliquez ici

 
LFLB °C
    Ferienhaus Ostsee
[source: ADDS]
METAR
LFLB 170900Z AUTO VRB01KT 9999 FEW074/// BKN092/// BKN190/// ///CB 23/17 Q1017 NOSIG =
TAF
TAF LFLB 170500Z 1706/1806 VRB05KT CAVOK BECMG 1707/1709 36006KT PROB40 TEMPO 1708/1712 -SHRA SCT060TCU TEMPO 1714/1721 4000 SHRA SCT040TCU PROB40 TEMPO 1714/1718 VRB15G30KT TSRA BKN035CB BECMG 1721/1723 VRB02KT =
SR / SS: 04:39 / 18:41 UTC (Lever/Coucher du soleil le 2018-08-17)
JSN Boot template designed by JoomlaShine.com